createdAt,value
2018-08-11T00:00:29.057Z,90.72
2018-08-11T00:02:58.239Z,90.93
2018-08-11T00:05:27.277Z,91.60
2018-08-11T00:07:56.360Z,91.04
2018-08-11T00:10:25.417Z,92.14
2018-08-11T00:12:54.453Z,92.10
2018-08-11T00:15:23.690Z,92.10
2018-08-11T00:17:52.696Z,92.76
2018-08-11T00:20:30.451Z,93.56
2018-08-11T00:22:59.495Z,93.16
2018-08-11T00:25:28.928Z,93.09
2018-08-11T00:27:58.006Z,92.70
2018-08-11T00:30:27.083Z,92.65
2018-08-11T00:32:56.165Z,92.82
2018-08-11T00:35:25.245Z,93.19
2018-08-11T00:37:54.429Z,93.94
2018-08-11T00:40:23.499Z,94.53
2018-08-11T00:42:52.620Z,94.26
2018-08-11T00:45:21.714Z,93.59
2018-08-11T00:47:50.736Z,94.24
2018-08-11T00:50:23.743Z,94.79
2018-08-11T00:52:53.152Z,94.42
2018-08-11T00:55:22.251Z,94.03
2018-08-11T00:57:51.240Z,94.15
2018-08-11T01:00:20.929Z,94.27
2018-08-11T01:02:50.161Z,93.93
2018-08-11T01:05:20.404Z,93.77
2018-08-11T01:07:50.228Z,93.24
2018-08-11T01:10:19.623Z,93.85
2018-08-11T01:12:49.202Z,93.54
2018-08-11T01:15:21.007Z,93.02
2018-08-11T01:17:50.885Z,93.18
2018-08-11T01:20:20.028Z,92.89
2018-08-11T01:22:49.647Z,92.88
2018-08-11T01:25:18.825Z,93.65
2018-08-11T01:27:47.932Z,94.40
2018-08-11T01:30:18.993Z,95.98
2018-08-11T01:32:48.126Z,95.79
2018-08-11T01:35:17.128Z,95.84
2018-08-11T01:37:46.721Z,96.76
2018-08-11T01:40:16.814Z,96.13
2018-08-11T01:42:47.074Z,95.96
2018-08-11T01:45:16.744Z,96.06
2018-08-11T01:47:45.884Z,96.37
2018-08-11T01:50:15.931Z,96.27
2018-08-11T01:52:46.302Z,96.76
2018-08-11T01:55:17.057Z,96.22
2018-08-11T01:57:46.241Z,96.17
2018-08-11T02:00:16.352Z,95.59
2018-08-11T02:02:45.416Z,96.26
2018-08-11T02:05:14.777Z,97.67
2018-08-11T02:07:44.535Z,98.50
2018-08-11T02:10:16.538Z,99.42
2018-08-11T02:12:46.204Z,99.61
2018-08-11T02:15:15.759Z,99.36
2018-08-11T02:17:44.819Z,100.00
2018-08-11T02:20:15.553Z,99.93
2018-08-11T02:22:45.773Z,100.00
2018-08-11T02:25:14.948Z,100.00
2018-08-11T02:27:44.020Z,100.00
2018-08-11T02:30:15.123Z,100.00
2018-08-11T02:32:44.278Z,99.97
2018-08-11T02:35:14.075Z,99.58
2018-08-11T02:37:43.484Z,98.44
2018-08-11T02:40:14.830Z,98.57
2018-08-11T02:42:43.840Z,98.68
2018-08-11T02:45:15.052Z,98.48
2018-08-11T02:47:44.413Z,98.27
2018-08-11T02:50:13.756Z,99.20
2018-08-11T02:52:43.216Z,99.31
2018-08-11T02:55:12.416Z,100.00
2018-08-11T02:57:41.426Z,100.00
2018-08-11T03:00:12.020Z,100.00
2018-08-11T03:02:41.051Z,100.00
2018-08-11T03:05:10.126Z,100.00
2018-08-11T03:07:39.336Z,100.00
2018-08-11T03:10:10.241Z,100.00
2018-08-11T03:12:39.893Z,100.00
2018-08-11T03:15:10.783Z,100.00
2018-08-11T03:17:40.461Z,100.00
2018-08-11T03:20:12.463Z,100.00
2018-08-11T03:22:41.552Z,100.00
2018-08-11T03:25:11.498Z,100.00
2018-08-11T03:27:40.566Z,100.00
2018-08-11T03:30:09.900Z,100.00
2018-08-11T03:32:38.960Z,99.80
2018-08-11T03:35:08.199Z,99.66
2018-08-11T03:37:37.340Z,99.97
2018-08-11T03:40:08.103Z,100.00
2018-08-11T03:42:37.185Z,100.00
2018-08-11T03:45:06.310Z,100.00
2018-08-11T03:47:35.377Z,100.00
2018-08-11T03:50:05.048Z,100.00
2018-08-11T03:52:34.166Z,100.00
2018-08-11T03:55:03.149Z,100.00
2018-08-11T03:57:32.173Z,99.07
2018-08-11T04:00:01.176Z,99.10
2018-08-11T04:02:30.168Z,99.01
2018-08-11T04:04:59.211Z,98.14
2018-08-11T04:07:28.258Z,97.88
2018-08-11T04:09:57.236Z,97.97
2018-08-11T04:12:26.303Z,97.96
2018-08-11T04:14:55.329Z,98.61
2018-08-11T04:17:41.261Z,98.49
2018-08-11T04:20:12.516Z,98.23
2018-08-11T04:22:41.515Z,97.18
2018-08-11T04:25:10.859Z,97.31
2018-08-11T04:27:39.838Z,97.05
2018-08-11T04:30:10.536Z,97.23
2018-08-11T04:32:39.663Z,97.34
2018-08-11T04:35:08.787Z,96.08
2018-08-11T04:37:37.768Z,96.27
2018-08-11T04:40:07.040Z,96.37
2018-08-11T04:42:36.058Z,96.36
2018-08-11T04:45:05.519Z,96.04
2018-08-11T04:47:34.580Z,95.44
2018-08-11T04:50:03.684Z,95.95
2018-08-11T04:52:32.824Z,95.77
2018-08-11T04:55:01.969Z,96.02
2018-08-11T04:57:30.984Z,95.96
2018-08-11T05:00:00.118Z,95.95
2018-08-11T05:02:29.100Z,95.69
2018-08-11T05:04:58.119Z,96.15
2018-08-11T05:07:27.250Z,96.29
2018-08-11T05:09:56.284Z,95.11
2018-08-11T05:12:25.340Z,93.11
2018-08-11T05:14:54.360Z,91.98
2018-08-11T05:17:23.359Z,90.62
2018-08-11T05:19:52.416Z,90.58
2018-08-11T05:22:21.436Z,89.72
2018-08-11T05:24:50.768Z,88.37
2018-08-11T05:27:19.911Z,85.86
2018-08-11T05:29:48.887Z,83.70
2018-08-11T05:32:17.953Z,80.21
2018-08-11T05:34:46.960Z,77.40
2018-08-11T05:37:16.045Z,74.40
2018-08-11T05:39:45.100Z,72.08
2018-08-11T05:42:14.155Z,67.83
2018-08-11T05:44:43.149Z,66.14
2018-08-11T05:47:12.207Z,64.90
2018-08-11T05:49:41.201Z,62.20
2018-08-11T05:52:10.159Z,59.79
2018-08-11T05:54:39.172Z,59.25
2018-08-11T05:57:08.213Z,58.14
2018-08-11T05:59:37.236Z,57.00
2018-08-11T06:02:06.561Z,54.64
2018-08-11T06:04:35.543Z,53.31
2018-08-11T06:07:04.784Z,53.35
2018-08-11T06:09:33.828Z,51.82
2018-08-11T06:12:02.827Z,51.56
2018-08-11T06:14:31.907Z,52.08
2018-08-11T06:17:00.885Z,53.85
2018-08-11T06:19:29.852Z,55.52
2018-08-11T06:21:58.932Z,54.16
2018-08-11T06:24:28.088Z,51.71
2018-08-11T06:26:57.116Z,51.61
2018-08-11T06:29:26.101Z,49.86
2018-08-11T06:31:55.079Z,48.77
2018-08-11T06:34:24.168Z,45.08
2018-08-11T06:36:53.200Z,43.63
2018-08-11T06:39:22.236Z,40.16
2018-08-11T06:41:51.284Z,41.36
2018-08-11T06:44:20.315Z,40.71
2018-08-11T06:46:49.483Z,39.04
2018-08-11T06:49:18.412Z,39.01
2018-08-11T06:51:47.523Z,37.97
2018-08-11T06:54:16.589Z,35.84
2018-08-11T06:56:45.602Z,38.28
2018-08-11T06:59:14.711Z,38.21
2018-08-11T07:01:43.760Z,37.90
2018-08-11T07:04:12.797Z,38.60
2018-08-11T07:06:42.183Z,35.38
2018-08-11T07:09:12.361Z,36.34
2018-08-11T07:11:41.335Z,36.59
2018-08-11T07:14:10.291Z,38.42
2018-08-11T07:16:39.368Z,35.23
2018-08-11T07:19:08.337Z,34.35
2018-08-11T07:21:37.407Z,33.08
2018-08-11T07:24:06.457Z,34.35
2018-08-11T07:26:35.554Z,35.51
2018-08-11T07:29:04.622Z,34.27
2018-08-11T07:31:33.629Z,36.71
2018-08-11T07:34:02.591Z,36.37
2018-08-11T07:36:31.779Z,36.96
2018-08-11T07:39:00.618Z,35.81
2018-08-11T07:41:29.745Z,34.28
2018-08-11T07:43:58.769Z,33.65
2018-08-11T07:46:27.784Z,36.79
2018-08-11T07:48:56.763Z,35.98
2018-08-11T07:51:25.945Z,35.40
2018-08-11T07:53:55.108Z,37.35
2018-08-11T07:56:24.200Z,35.86
2018-08-11T07:58:53.172Z,34.85
2018-08-11T08:01:22.197Z,35.43
2018-08-11T08:03:51.231Z,33.49
2018-08-11T08:06:20.263Z,33.56
2018-08-11T08:08:49.300Z,32.96
2018-08-11T08:11:18.424Z,33.84
2018-08-11T08:13:47.439Z,34.98
2018-08-11T08:16:16.492Z,34.53
2018-08-11T08:18:45.602Z,34.60
2018-08-11T08:21:14.571Z,35.10
2018-08-11T08:23:43.604Z,34.96
2018-08-11T08:26:12.789Z,34.76
2018-08-11T08:28:41.716Z,35.12
2018-08-11T08:31:10.865Z,36.13
2018-08-11T08:33:39.903Z,36.56
2018-08-11T08:36:09.021Z,36.61
2018-08-11T08:38:38.072Z,34.74
2018-08-11T08:41:07.037Z,34.23
2018-08-11T08:43:36.090Z,35.60
2018-08-11T08:46:05.114Z,37.33
2018-08-11T08:48:34.074Z,37.82
2018-08-11T08:51:03.067Z,40.84
2018-08-11T08:53:32.098Z,40.41
2018-08-11T08:56:01.224Z,40.56
2018-08-11T08:58:30.184Z,39.01
2018-08-11T09:00:59.261Z,39.98
2018-08-11T09:03:28.246Z,40.20
2018-08-11T09:05:57.240Z,38.69
2018-08-11T09:08:26.325Z,39.56
2018-08-11T09:10:55.297Z,38.75
2018-08-11T09:13:24.337Z,38.39
2018-08-11T09:15:53.488Z,39.12
2018-08-11T09:18:22.607Z,40.91
2018-08-11T09:20:51.660Z,39.60
2018-08-11T09:23:20.672Z,39.06
2018-08-11T09:25:50.099Z,35.24
2018-08-11T09:28:19.181Z,35.58
2018-08-11T09:30:48.160Z,36.94
2018-08-11T09:33:17.228Z,37.75
2018-08-11T09:35:46.216Z,40.10
2018-08-11T09:38:15.228Z,39.64
2018-08-11T09:40:44.243Z,35.28
2018-08-11T09:43:13.211Z,35.29
2018-08-11T09:45:42.369Z,38.53
2018-08-11T09:48:11.361Z,35.23
2018-08-11T09:50:40.323Z,35.48
2018-08-11T09:53:09.304Z,36.99
2018-08-11T09:55:38.337Z,39.30
2018-08-11T09:58:07.430Z,39.57
2018-08-11T10:00:54.855Z,38.87
2018-08-11T10:03:24.509Z,34.32
2018-08-11T10:05:53.561Z,33.62
2018-08-11T10:08:22.712Z,33.34
2018-08-11T10:10:51.689Z,35.48
2018-08-11T10:13:20.734Z,35.13
2018-08-11T10:15:49.756Z,35.62
2018-08-11T10:18:18.729Z,35.72
2018-08-11T10:20:47.707Z,33.82
2018-08-11T10:23:16.794Z,31.43
2018-08-11T10:25:45.953Z,32.69
2018-08-11T10:28:14.941Z,35.14
2018-08-11T10:30:43.904Z,33.52
2018-08-11T10:33:12.943Z,33.89
2018-08-11T10:35:41.968Z,33.51
2018-08-11T10:38:11.057Z,33.93
2018-08-11T10:40:40.028Z,35.10
2018-08-11T10:43:09.164Z,36.56
2018-08-11T10:45:38.127Z,36.18
2018-08-11T10:48:07.205Z,35.96
2018-08-11T10:50:36.274Z,36.53
2018-08-11T10:53:05.301Z,35.71
2018-08-11T10:55:34.460Z,36.28
2018-08-11T10:58:03.562Z,35.11
2018-08-11T11:00:32.636Z,36.94
2018-08-11T11:03:01.623Z,35.18
2018-08-11T11:05:30.583Z,33.60
2018-08-11T11:07:59.679Z,33.31
2018-08-11T11:10:28.645Z,31.38
2018-08-11T11:12:57.631Z,32.46
2018-08-11T11:15:26.670Z,31.02
2018-08-11T11:17:55.697Z,31.10
2018-08-11T11:20:24.868Z,32.31
2018-08-11T11:22:53.936Z,31.06
2018-08-11T11:25:22.920Z,32.40
2018-08-11T11:27:51.917Z,30.76
2018-08-11T11:30:20.900Z,30.86
2018-08-11T11:32:49.856Z,31.57
2018-08-11T11:35:18.900Z,31.89
2018-08-11T11:37:47.944Z,32.53
2018-08-11T11:40:16.952Z,30.85
2018-08-11T11:42:46.017Z,31.99
2018-08-11T11:45:14.995Z,29.10
2018-08-11T11:47:44.031Z,30.30
2018-08-11T11:50:12.992Z,30.86
2018-08-11T11:52:42.044Z,30.97
2018-08-11T11:55:11.033Z,30.27
2018-08-11T11:57:40.009Z,33.62
2018-08-11T12:00:09.192Z,30.26
2018-08-11T12:02:38.264Z,31.72
2018-08-11T12:05:07.309Z,32.70
2018-08-11T12:07:36.277Z,31.11
2018-08-11T12:10:05.405Z,31.19
2018-08-11T12:12:34.385Z,30.72
2018-08-11T12:15:03.460Z,31.41
2018-08-11T12:17:32.539Z,31.23
2018-08-11T12:20:01.608Z,32.21
2018-08-11T12:22:30.604Z,32.04
2018-08-11T12:24:59.683Z,31.82
2018-08-11T12:27:28.733Z,33.01
2018-08-11T12:29:57.767Z,35.14
2018-08-11T12:32:26.800Z,33.19
2018-08-11T12:34:55.848Z,34.41
2018-08-11T12:37:24.993Z,34.81
2018-08-11T12:39:53.982Z,34.72
2018-08-11T12:42:23.031Z,32.66
2018-08-11T12:44:52.088Z,34.46
2018-08-11T12:47:21.055Z,34.13
2018-08-11T12:49:50.197Z,32.91
2018-08-11T12:52:19.199Z,31.54
2018-08-11T12:54:48.224Z,32.21
2018-08-11T12:57:17.225Z,32.01
2018-08-11T12:59:46.356Z,30.23
2018-08-11T13:02:15.405Z,32.35
2018-08-11T13:04:44.368Z,32.24
2018-08-11T13:07:13.379Z,31.07
2018-08-11T13:09:43.366Z,34.07
2018-08-11T13:12:12.363Z,33.10
2018-08-11T13:14:41.368Z,34.67
2018-08-11T13:17:10.329Z,33.54
2018-08-11T13:19:39.760Z,31.82
2018-08-11T13:22:08.725Z,32.60
2018-08-11T13:24:37.683Z,32.41
2018-08-11T13:27:06.704Z,31.71
2018-08-11T13:29:35.778Z,34.21
2018-08-11T13:32:04.845Z,34.32
2018-08-11T13:34:33.860Z,35.31
2018-08-11T13:37:02.904Z,36.37
2018-08-11T13:39:31.940Z,36.39
2018-08-11T13:42:01.045Z,36.64
2018-08-11T13:44:30.021Z,36.95
2018-08-11T13:46:59.053Z,37.18
2018-08-11T13:49:28.088Z,38.86
2018-08-11T13:51:57.056Z,39.72
2018-08-11T13:54:26.109Z,36.03
2018-08-11T13:56:55.172Z,34.69
2018-08-11T13:59:24.167Z,32.75
2018-08-11T14:01:53.164Z,34.81
2018-08-11T14:04:22.188Z,33.14
2018-08-11T14:06:51.180Z,33.36
2018-08-11T14:09:20.221Z,31.90
2018-08-11T14:11:49.255Z,33.60
2018-08-11T14:14:18.212Z,31.89
2018-08-11T14:16:47.265Z,35.34
2018-08-11T14:19:16.329Z,31.21
2018-08-11T14:21:45.295Z,32.28
2018-08-11T14:24:14.307Z,32.35
2018-08-11T14:26:43.272Z,32.58
2018-08-11T14:29:12.305Z,31.99
2018-08-11T14:31:41.368Z,31.84
2018-08-11T14:34:10.632Z,32.20
2018-08-11T14:36:39.787Z,32.86
2018-08-11T14:39:10.066Z,32.46
2018-08-11T14:41:39.167Z,31.78
2018-08-11T14:44:08.647Z,31.38
2018-08-11T14:46:37.952Z,32.45
2018-08-11T14:49:07.447Z,32.91
2018-08-11T14:51:36.768Z,31.13
2018-08-11T14:54:05.986Z,31.84
2018-08-11T14:56:34.959Z,31.28
2018-08-11T14:59:03.979Z,31.72
2018-08-11T15:01:32.996Z,31.22
2018-08-11T15:04:02.092Z,32.18
2018-08-11T15:06:31.096Z,32.15
2018-08-11T15:09:00.143Z,33.82
2018-08-11T15:11:29.122Z,34.07
2018-08-11T15:13:58.240Z,33.54
2018-08-11T15:16:27.271Z,34.08
2018-08-11T15:18:56.257Z,33.77
2018-08-11T15:21:25.279Z,33.63
2018-08-11T15:23:54.252Z,33.63
2018-08-11T15:26:23.239Z,33.56
2018-08-11T15:28:52.254Z,32.27
2018-08-11T15:31:21.232Z,34.08
2018-08-11T15:33:50.196Z,33.75
2018-08-11T15:36:19.373Z,33.80
2018-08-11T15:38:48.352Z,33.49
2018-08-11T15:41:17.320Z,33.63
2018-08-11T15:43:46.489Z,33.97
2018-08-11T15:46:15.459Z,33.26
2018-08-11T15:48:44.666Z,35.28
2018-08-11T15:51:13.764Z,34.00
2018-08-11T15:53:42.766Z,31.80
2018-08-11T15:56:11.746Z,32.62
2018-08-11T15:58:40.768Z,33.19
2018-08-11T16:01:09.885Z,34.37
2018-08-11T16:03:38.884Z,34.78
2018-08-11T16:06:07.847Z,34.99
2018-08-11T16:08:36.844Z,33.76
2018-08-11T16:11:05.923Z,35.34
2018-08-11T16:13:34.905Z,35.38
2018-08-11T16:16:04.076Z,35.68
2018-08-11T16:18:33.110Z,37.18
2018-08-11T16:21:02.099Z,37.96
2018-08-11T16:23:31.150Z,38.89
2018-08-11T16:26:00.196Z,38.74
2018-08-11T16:28:29.195Z,37.83
2018-08-11T16:30:58.270Z,38.81
2018-08-11T16:33:27.311Z,38.66
2018-08-11T16:35:56.298Z,39.91
2018-08-11T16:38:25.368Z,39.53
2018-08-11T16:40:54.408Z,42.25
2018-08-11T16:43:23.526Z,44.30
2018-08-11T16:45:52.592Z,43.52
2018-08-11T16:48:21.560Z,44.60
2018-08-11T16:50:50.600Z,44.69
2018-08-11T16:53:19.579Z,44.31
2018-08-11T16:55:48.545Z,45.99
2018-08-11T16:58:17.592Z,45.55
2018-08-11T17:00:46.647Z,46.74
2018-08-11T17:03:15.699Z,44.66
2018-08-11T17:05:44.727Z,45.74
2018-08-11T17:08:13.750Z,45.24
2018-08-11T17:10:42.788Z,46.55
2018-08-11T17:13:11.797Z,46.46
2018-08-11T17:15:40.775Z,45.89
2018-08-11T17:18:09.916Z,46.14
2018-08-11T17:20:38.903Z,48.22
2018-08-11T17:23:07.968Z,48.30
2018-08-11T17:25:36.955Z,49.27
2018-08-11T17:28:06.037Z,51.04
2018-08-11T17:30:35.024Z,50.87
2018-08-11T17:33:04.005Z,48.38
2018-08-11T17:35:33.150Z,49.20
2018-08-11T17:38:02.131Z,49.80
2018-08-11T17:40:31.162Z,48.93
2018-08-11T17:43:00.209Z,49.72
2018-08-11T17:45:29.257Z,50.62
2018-08-11T17:47:58.404Z,52.50
2018-08-11T17:50:27.392Z,50.38
2018-08-11T17:52:56.385Z,50.18
2018-08-11T17:55:25.409Z,51.44
2018-08-11T17:57:54.608Z,51.82
2018-08-11T18:00:23.781Z,51.82
2018-08-11T18:02:52.770Z,51.56
2018-08-11T18:05:21.742Z,52.08
2018-08-11T18:07:50.926Z,52.08
2018-08-11T18:10:26.319Z,52.99
2018-08-11T18:12:55.440Z,54.49
2018-08-11T18:15:24.400Z,53.44
2018-08-11T18:17:53.559Z,54.40
2018-08-11T18:20:22.595Z,53.52
2018-08-11T18:22:51.560Z,54.56
2018-08-11T18:25:20.871Z,55.16
2018-08-11T18:27:49.831Z,54.77
2018-08-11T18:30:18.849Z,55.33
2018-08-11T18:32:47.914Z,55.66
2018-08-11T18:35:17.000Z,56.89
2018-08-11T18:37:46.067Z,57.83
2018-08-11T18:40:15.100Z,59.41
2018-08-11T18:42:44.072Z,60.24
2018-08-11T18:45:13.276Z,61.13
2018-08-11T18:47:42.263Z,61.00
2018-08-11T18:50:11.383Z,62.82
2018-08-11T18:52:40.480Z,63.00
2018-08-11T18:55:10.437Z,62.98
2018-08-11T18:57:39.829Z,64.32
2018-08-11T19:00:18.129Z,68.30
2018-08-11T19:02:47.310Z,70.31
2018-08-11T19:05:16.529Z,70.72
2018-08-11T19:07:45.626Z,70.84
2018-08-11T19:10:15.202Z,71.31
2018-08-11T19:12:44.235Z,70.31
2018-08-11T19:15:14.572Z,70.02
2018-08-11T19:17:43.836Z,67.80
2018-08-11T19:20:14.178Z,65.90
2018-08-11T19:22:43.275Z,66.94
2018-08-11T19:25:12.928Z,66.44
2018-08-11T19:27:41.969Z,69.35
2018-08-11T19:30:12.524Z,70.00
2018-08-11T19:32:41.676Z,69.40
2018-08-11T19:35:10.726Z,70.15
2018-08-11T19:37:39.818Z,70.86
2018-08-11T19:40:09.809Z,70.98
2018-08-11T19:42:38.853Z,70.51
2018-08-11T19:45:10.364Z,71.37
2018-08-11T19:47:39.357Z,71.34
2018-08-11T19:50:09.985Z,72.57
2018-08-11T19:52:39.207Z,72.32
2018-08-11T19:55:08.588Z,73.44
2018-08-11T19:57:37.720Z,73.82
2018-08-11T20:00:09.928Z,73.37
2018-08-11T20:02:39.160Z,74.11
2018-08-11T20:05:08.783Z,73.74
2018-08-11T20:07:37.944Z,74.23
2018-08-11T20:10:07.804Z,74.66
2018-08-11T20:12:37.304Z,74.11
2018-08-11T20:15:07.619Z,75.00
2018-08-11T20:17:36.620Z,75.10
2018-08-11T20:20:07.193Z,75.20
2018-08-11T20:22:36.244Z,75.50
2018-08-11T20:25:05.493Z,75.61
2018-08-11T20:27:34.556Z,76.76
2018-08-11T20:30:03.710Z,76.12
2018-08-11T20:32:32.812Z,76.12
2018-08-11T20:35:01.849Z,76.81
2018-08-11T20:37:30.868Z,77.04
2018-08-11T20:40:00.019Z,78.02
2018-08-11T20:42:29.131Z,78.34
2018-08-11T20:44:58.176Z,77.68
2018-08-11T20:47:27.244Z,76.94
2018-08-11T20:49:56.292Z,77.79
2018-08-11T20:52:25.316Z,77.68
2018-08-11T20:54:54.317Z,78.80
2018-08-11T20:57:23.316Z,78.82
2018-08-11T20:59:52.425Z,77.77
2018-08-11T21:02:21.692Z,78.47
2018-08-11T21:04:50.672Z,78.24
2018-08-11T21:07:19.752Z,78.49
2018-08-11T21:09:48.744Z,77.80
2018-08-11T21:12:17.756Z,79.60
2018-08-11T21:14:47.127Z,80.38
2018-08-11T21:17:16.117Z,80.24
2018-08-11T21:19:45.235Z,80.38
2018-08-11T21:22:14.255Z,81.17
2018-08-11T21:24:43.565Z,80.80
2018-08-11T21:27:12.609Z,81.25
2018-08-11T21:29:41.660Z,82.14
2018-08-11T21:32:10.690Z,82.47
2018-08-11T21:34:39.678Z,82.76
2018-08-11T21:37:08.732Z,82.23
2018-08-11T21:39:37.729Z,82.87
2018-08-11T21:42:07.244Z,83.09
2018-08-11T21:44:36.412Z,81.87
2018-08-11T21:47:05.540Z,81.70
2018-08-11T21:49:34.656Z,83.19
2018-08-11T21:52:03.797Z,84.18
2018-08-11T21:54:32.859Z,84.33
2018-08-11T21:57:01.933Z,85.23
2018-08-11T21:59:30.911Z,84.83
2018-08-11T22:02:00.143Z,85.27
2018-08-11T22:04:33.015Z,85.36
2018-08-11T22:07:04.749Z,85.69
2018-08-11T22:09:33.816Z,85.33
2018-08-11T22:12:03.289Z,84.82
2018-08-11T22:14:32.479Z,84.81
2018-08-11T22:17:02.155Z,85.10
2018-08-11T22:19:31.126Z,85.60
2018-08-11T22:22:00.160Z,86.10
2018-08-11T22:24:29.236Z,86.30
2018-08-11T22:26:58.268Z,86.16
2018-08-11T22:29:27.340Z,85.66
2018-08-11T22:31:56.373Z,85.36
2018-08-11T22:34:25.359Z,86.72
2018-08-11T22:36:54.427Z,86.30
2018-08-11T22:39:23.528Z,86.51
2018-08-11T22:41:52.548Z,86.26
2018-08-11T22:44:21.539Z,87.17
2018-08-11T22:46:50.536Z,87.79
2018-08-11T22:49:19.509Z,88.32
2018-08-11T22:51:48.578Z,87.85
2018-08-11T22:54:17.560Z,87.76
2018-08-11T22:56:46.694Z,87.64
2018-08-11T22:59:15.797Z,87.57
2018-08-11T23:01:44.799Z,88.07
2018-08-11T23:04:13.852Z,88.00
2018-08-11T23:06:42.924Z,87.38
2018-08-11T23:09:11.960Z,87.84
2018-08-11T23:11:40.967Z,88.78
2018-08-11T23:14:10.007Z,89.03
2018-08-11T23:16:39.066Z,89.42
2018-08-11T23:19:08.133Z,89.93
2018-08-11T23:21:37.250Z,90.73
2018-08-11T23:24:06.333Z,90.97
2018-08-11T23:26:35.464Z,91.50
2018-08-11T23:29:04.807Z,90.74
2018-08-11T23:31:33.857Z,90.47
2018-08-11T23:34:02.884Z,88.92
2018-08-11T23:36:31.919Z,88.81
2018-08-11T23:39:01.009Z,88.55
2018-08-11T23:41:30.008Z,87.96
2018-08-11T23:43:59.103Z,87.42
2018-08-11T23:46:28.105Z,87.49
2018-08-11T23:48:57.170Z,87.50
2018-08-11T23:51:26.186Z,88.23
2018-08-11T23:53:55.276Z,88.44
2018-08-11T23:56:24.435Z,89.12
2018-08-11T23:58:53.524Z,89.40
